sensor_id;sensor_type;location;lat;lon;timestamp;pressure;altitude;pressure_sealevel;temperature;humidity
18527;BME280;9393;42.158;24.748;2022-10-17T00:01:57;100967.56;;;14.32;55.64
18527;BME280;9393;42.158;24.748;2022-10-17T00:05:02;100972.72;;;14.63;54.84
18527;BME280;9393;42.158;24.748;2022-10-17T00:08:05;100969.50;;;14.50;55.23
18527;BME280;9393;42.158;24.748;2022-10-17T00:11:14;100982.94;;;14.66;54.68
18527;BME280;9393;42.158;24.748;2022-10-17T00:14:17;100983.59;;;14.59;54.82
18527;BME280;9393;42.158;24.748;2022-10-17T00:17:21;100980.56;;;14.54;54.81
18527;BME280;9393;42.158;24.748;2022-10-17T00:20:25;100978.31;;;14.49;54.86
18527;BME280;9393;42.158;24.748;2022-10-17T00:23:32;100981.25;;;14.56;54.68
18527;BME280;9393;42.158;24.748;2022-10-17T00:26:35;100983.84;;;14.46;54.86
18527;BME280;9393;42.158;24.748;2022-10-17T00:29:38;100980.97;;;14.29;55.32
18527;BME280;9393;42.158;24.748;2022-10-17T00:32:42;100986.03;;;14.00;56.05
18527;BME280;9393;42.158;24.748;2022-10-17T00:35:46;100978.41;;;13.97;55.96
18527;BME280;9393;42.158;24.748;2022-10-17T00:38:51;100981.56;;;13.91;56.09
18527;BME280;9393;42.158;24.748;2022-10-17T00:41:54;100984.06;;;13.92;56.03
18527;BME280;9393;42.158;24.748;2022-10-17T00:45:03;100981.44;;;14.13;55.62
18527;BME280;9393;42.158;24.748;2022-10-17T00:48:08;100984.88;;;13.93;56.08
18527;BME280;9393;42.158;24.748;2022-10-17T00:51:14;100984.97;;;14.02;55.93
18527;BME280;9393;42.158;24.748;2022-10-17T00:54:22;100984.06;;;13.92;56.29
18527;BME280;9393;42.158;24.748;2022-10-17T00:57:26;100983.75;;;13.86;56.60
18527;BME280;9393;42.158;24.748;2022-10-17T01:00:32;100984.66;;;13.96;56.28
18527;BME280;9393;42.158;24.748;2022-10-17T01:03:35;100982.66;;;13.88;56.36
18527;BME280;9393;42.158;24.748;2022-10-17T01:06:40;100985.34;;;13.77;57.20
18527;BME280;9393;42.158;24.748;2022-10-17T01:09:44;100985.66;;;13.84;56.86
18527;BME280;9393;42.158;24.748;2022-10-17T01:12:58;100987.44;;;13.83;56.86
18527;BME280;9393;42.158;24.748;2022-10-17T01:16:10;100990.56;;;13.56;57.67
18527;BME280;9393;42.158;24.748;2022-10-17T01:19:37;100988.03;;;13.55;57.82
18527;BME280;9393;42.158;24.748;2022-10-17T01:22:50;100993.41;;;13.85;56.93
18527;BME280;9393;42.158;24.748;2022-10-17T01:26:04;100992.56;;;13.85;56.82
18527;BME280;9393;42.158;24.748;2022-10-17T01:29:33;100997.81;;;14.05;56.46
18527;BME280;9393;42.158;24.748;2022-10-17T01:32:45;100992.31;;;14.08;55.99
18527;BME280;9393;42.158;24.748;2022-10-17T01:35:52;100995.78;;;13.88;56.40
18527;BME280;9393;42.158;24.748;2022-10-17T01:39:13;100992.00;;;13.81;56.73
18527;BME280;9393;42.158;24.748;2022-10-17T01:42:22;100993.84;;;13.38;57.81
18527;BME280;9393;42.158;24.748;2022-10-17T01:45:31;100996.16;;;13.52;57.31
18527;BME280;9393;42.158;24.748;2022-10-17T01:48:41;100996.50;;;13.79;56.59
18527;BME280;9393;42.158;24.748;2022-10-17T01:51:48;100995.19;;;13.64;56.67
18527;BME280;9393;42.158;24.748;2022-10-17T01:54:56;101005.72;;;13.74;56.37
18527;BME280;9393;42.158;24.748;2022-10-17T01:58:06;100997.94;;;13.83;56.24
18527;BME280;9393;42.158;24.748;2022-10-17T02:01:11;101004.16;;;13.82;55.70
18527;BME280;9393;42.158;24.748;2022-10-17T02:04:16;101011.50;;;13.68;55.90
18527;BME280;9393;42.158;24.748;2022-10-17T02:07:20;101010.56;;;13.57;56.26
18527;BME280;9393;42.158;24.748;2022-10-17T02:10:31;101009.41;;;13.50;56.48
18527;BME280;9393;42.158;24.748;2022-10-17T02:13:48;101019.09;;;13.71;56.06
18527;BME280;9393;42.158;24.748;2022-10-17T02:17:02;101017.53;;;13.47;56.50
18527;BME280;9393;42.158;24.748;2022-10-17T02:20:16;101021.72;;;13.39;56.72
18527;BME280;9393;42.158;24.748;2022-10-17T02:23:26;101017.34;;;13.60;56.30
18527;BME280;9393;42.158;24.748;2022-10-17T02:26:39;101015.69;;;13.59;56.33
18527;BME280;9393;42.158;24.748;2022-10-17T02:29:46;101018.81;;;13.53;56.49
18527;BME280;9393;42.158;24.748;2022-10-17T02:32:55;101025.25;;;13.49;56.49
18527;BME280;9393;42.158;24.748;2022-10-17T02:36:19;101026.75;;;13.31;57.01
18527;BME280;9393;42.158;24.748;2022-10-17T02:39:26;101030.81;;;12.79;59.13
18527;BME280;9393;42.158;24.748;2022-10-17T02:42:30;101036.88;;;12.80;58.84
18527;BME280;9393;42.158;24.748;2022-10-17T02:45:37;101044.13;;;12.32;60.39
18527;BME280;9393;42.158;24.748;2022-10-17T02:48:47;101049.28;;;12.66;59.15
18527;BME280;9393;42.158;24.748;2022-10-17T02:51:58;101049.97;;;12.80;58.79
18527;BME280;9393;42.158;24.748;2022-10-17T02:55:09;101056.31;;;12.99;58.14
18527;BME280;9393;42.158;24.748;2022-10-17T02:58:18;101054.72;;;13.08;57.97
18527;BME280;9393;42.158;24.748;2022-10-17T03:01:23;101057.88;;;13.13;57.58
18527;BME280;9393;42.158;24.748;2022-10-17T03:04:27;101054.63;;;13.21;57.41
18527;BME280;9393;42.158;24.748;2022-10-17T03:07:32;101053.31;;;13.26;57.03
18527;BME280;9393;42.158;24.748;2022-10-17T03:10:35;101061.16;;;13.04;57.79
18527;BME280;9393;42.158;24.748;2022-10-17T03:13:40;101059.41;;;12.71;58.70
18527;BME280;9393;42.158;24.748;2022-10-17T03:16:44;101064.63;;;12.14;60.77
18527;BME280;9393;42.158;24.748;2022-10-17T03:19:49;101061.53;;;12.66;59.16
18527;BME280;9393;42.158;24.748;2022-10-17T03:22:54;101069.75;;;12.95;58.08
18527;BME280;9393;42.158;24.748;2022-10-17T03:25:57;101073.31;;;12.60;59.45
18527;BME280;9393;42.158;24.748;2022-10-17T03:29:05;101077.25;;;12.77;58.86
18527;BME280;9393;42.158;24.748;2022-10-17T03:32:09;101070.69;;;13.05;57.88
18527;BME280;9393;42.158;24.748;2022-10-17T03:35:13;101060.81;;;12.97;57.99
18527;BME280;9393;42.158;24.748;2022-10-17T03:38:22;101059.75;;;12.89;58.32
18527;BME280;9393;42.158;24.748;2022-10-17T03:41:26;101058.19;;;12.64;58.87
18527;BME280;9393;42.158;24.748;2022-10-17T03:44:29;101069.28;;;12.79;58.34
18527;BME280;9393;42.158;24.748;2022-10-17T03:47:33;101061.19;;;12.71;58.51
18527;BME280;9393;42.158;24.748;2022-10-17T03:50:37;101057.47;;;12.51;59.15
18527;BME280;9393;42.158;24.748;2022-10-17T03:53:43;101064.50;;;12.50;59.22
18527;BME280;9393;42.158;24.748;2022-10-17T03:56:47;101067.59;;;12.44;59.47
18527;BME280;9393;42.158;24.748;2022-10-17T03:59:53;101066.75;;;11.74;61.82
18527;BME280;9393;42.158;24.748;2022-10-17T04:02:56;101070.97;;;11.88;61.67
18527;BME280;9393;42.158;24.748;2022-10-17T04:06:01;101067.03;;;11.82;61.90
18527;BME280;9393;42.158;24.748;2022-10-17T04:09:10;101066.91;;;11.60;62.64
18527;BME280;9393;42.158;24.748;2022-10-17T04:12:26;101061.19;;;12.02;61.41
18527;BME280;9393;42.158;24.748;2022-10-17T04:15:30;101072.97;;;11.84;62.09
18527;BME280;9393;42.158;24.748;2022-10-17T04:18:33;101064.78;;;12.12;61.04
18527;BME280;9393;42.158;24.748;2022-10-17T04:21:37;101076.31;;;12.10;61.14
18527;BME280;9393;42.158;24.748;2022-10-17T04:24:43;101065.91;;;11.97;61.46
18527;BME280;9393;42.158;24.748;2022-10-17T04:28:07;101080.69;;;12.21;60.62
18527;BME280;9393;42.158;24.748;2022-10-17T04:31:13;101080.13;;;12.28;60.32
18527;BME280;9393;42.158;24.748;2022-10-17T04:34:38;101091.19;;;12.32;60.22
18527;BME280;9393;42.158;24.748;2022-10-17T04:37:41;101089.06;;;12.26;60.32
18527;BME280;9393;42.158;24.748;2022-10-17T04:40:52;101086.47;;;12.37;59.91
18527;BME280;9393;42.158;24.748;2022-10-17T04:43:55;101088.84;;;12.40;59.64
18527;BME280;9393;42.158;24.748;2022-10-17T04:47:00;101093.94;;;11.95;61.09
18527;BME280;9393;42.158;24.748;2022-10-17T04:50:04;101100.84;;;11.73;62.19
18527;BME280;9393;42.158;24.748;2022-10-17T04:53:09;101113.75;;;11.50;62.99
18527;BME280;9393;42.158;24.748;2022-10-17T04:56:15;101109.06;;;11.43;63.27
18527;BME280;9393;42.158;24.748;2022-10-17T04:59:19;101110.53;;;11.47;62.57
18527;BME280;9393;42.158;24.748;2022-10-17T05:02:31;101107.03;;;11.72;62.05
18527;BME280;9393;42.158;24.748;2022-10-17T05:05:36;101125.19;;;11.73;62.14
18527;BME280;9393;42.158;24.748;2022-10-17T05:08:41;101127.81;;;11.73;62.10
18527;BME280;9393;42.158;24.748;2022-10-17T05:11:46;101138.34;;;11.84;61.85
18527;BME280;9393;42.158;24.748;2022-10-17T05:14:49;101138.50;;;11.94;61.34
18527;BME280;9393;42.158;24.748;2022-10-17T05:17:54;101145.00;;;12.12;60.69
18527;BME280;9393;42.158;24.748;2022-10-17T05:21:01;101143.75;;;12.29;60.17
18527;BME280;9393;42.158;24.748;2022-10-17T05:24:06;101153.94;;;12.21;60.47
18527;BME280;9393;42.158;24.748;2022-10-17T05:27:13;101165.44;;;12.42;59.77
18527;BME280;9393;42.158;24.748;2022-10-17T05:30:17;101168.94;;;12.53;59.36
18527;BME280;9393;42.158;24.748;2022-10-17T05:33:23;101160.28;;;12.64;59.10
18527;BME280;9393;42.158;24.748;2022-10-17T05:36:27;101171.75;;;12.96;58.22
18527;BME280;9393;42.158;24.748;2022-10-17T05:39:32;101179.72;;;12.84;58.76
18527;BME280;9393;42.158;24.748;2022-10-17T05:42:38;101177.72;;;12.98;58.52
18527;BME280;9393;42.158;24.748;2022-10-17T05:45:43;101182.66;;;13.36;57.91
18527;BME280;9393;42.158;24.748;2022-10-17T05:48:51;101180.97;;;13.46;58.00
18527;BME280;9393;42.158;24.748;2022-10-17T05:51:56;101189.41;;;13.61;58.21
18527;BME280;9393;42.158;24.748;2022-10-17T05:55:00;101195.19;;;13.87;56.61
18527;BME280;9393;42.158;24.748;2022-10-17T05:58:04;101196.19;;;14.17;56.87
18527;BME280;9393;42.158;24.748;2022-10-17T06:01:13;101203.09;;;14.61;55.84
18527;BME280;9393;42.158;24.748;2022-10-17T06:04:16;101194.25;;;15.13;53.60
18527;BME280;9393;42.158;24.748;2022-10-17T06:07:20;101207.91;;;15.28;53.70
18527;BME280;9393;42.158;24.748;2022-10-17T06:10:23;101205.53;;;15.55;52.61
18527;BME280;9393;42.158;24.748;2022-10-17T06:13:29;101208.81;;;15.78;52.17
18527;BME280;9393;42.158;24.748;2022-10-17T06:16:35;101215.78;;;15.89;51.81
18527;BME280;9393;42.158;24.748;2022-10-17T06:19:38;101216.50;;;16.20;51.36
18527;BME280;9393;42.158;24.748;2022-10-17T06:22:43;101223.16;;;16.62;49.39
18527;BME280;9393;42.158;24.748;2022-10-17T06:25:52;101221.94;;;16.37;49.29
18527;BME280;9393;42.158;24.748;2022-10-17T06:28:56;101230.13;;;16.82;48.92
18527;BME280;9393;42.158;24.748;2022-10-17T06:32:05;101228.16;;;16.84;49.00
18527;BME280;9393;42.158;24.748;2022-10-17T06:35:15;101229.78;;;17.04;48.84
18527;BME280;9393;42.158;24.748;2022-10-17T06:38:19;101237.06;;;17.30;47.48
18527;BME280;9393;42.158;24.748;2022-10-17T06:41:24;101239.66;;;17.76;46.50
18527;BME280;9393;42.158;24.748;2022-10-17T06:44:30;101243.63;;;17.62;46.76
18527;BME280;9393;42.158;24.748;2022-10-17T06:47:51;101238.31;;;17.99;46.32
18527;BME280;9393;42.158;24.748;2022-10-17T06:51:14;101229.50;;;18.08;45.54
18527;BME280;9393;42.158;24.748;2022-10-17T06:54:28;101233.94;;;18.08;46.10
18527;BME280;9393;42.158;24.748;2022-10-17T06:57:40;101239.75;;;18.11;45.13
18527;BME280;9393;42.158;24.748;2022-10-17T07:01:18;101236.91;;;17.78;46.28
18527;BME280;9393;42.158;24.748;2022-10-17T07:04:23;101239.38;;;18.06;45.25
18527;BME280;9393;42.158;24.748;2022-10-17T07:07:29;101244.13;;;18.21;45.44
18527;BME280;9393;42.158;24.748;2022-10-17T07:10:33;101238.22;;;18.54;43.96
18527;BME280;9393;42.158;24.748;2022-10-17T07:13:41;101249.00;;;18.78;44.20
18527;BME280;9393;42.158;24.748;2022-10-17T07:16:46;101248.38;;;18.84;44.27
18527;BME280;9393;42.158;24.748;2022-10-17T07:19:53;101247.56;;;19.09;43.86
18527;BME280;9393;42.158;24.748;2022-10-17T07:22:59;101258.81;;;19.11;43.48
18527;BME280;9393;42.158;24.748;2022-10-17T07:26:05;101264.06;;;19.29;43.86
18527;BME280;9393;42.158;24.748;2022-10-17T07:29:11;101261.63;;;19.61;42.90
18527;BME280;9393;42.158;24.748;2022-10-17T07:32:24;101258.75;;;19.89;42.65
18527;BME280;9393;42.158;24.748;2022-10-17T07:35:27;101268.38;;;19.98;42.17
18527;BME280;9393;42.158;24.748;2022-10-17T07:38:31;101264.47;;;20.18;41.75
18527;BME280;9393;42.158;24.748;2022-10-17T07:41:34;101266.00;;;20.29;41.94
18527;BME280;9393;42.158;24.748;2022-10-17T07:44:38;101261.34;;;20.31;41.33
18527;BME280;9393;42.158;24.748;2022-10-17T07:47:45;101265.25;;;20.10;41.73
18527;BME280;9393;42.158;24.748;2022-10-17T07:50:50;101262.47;;;20.12;41.98
18527;BME280;9393;42.158;24.748;2022-10-17T07:53:53;101256.34;;;20.20;42.04
18527;BME280;9393;42.158;24.748;2022-10-17T07:56:57;101257.28;;;20.69;41.17
18527;BME280;9393;42.158;24.748;2022-10-17T08:00:00;101251.47;;;20.65;41.31
18527;BME280;9393;42.158;24.748;2022-10-17T08:03:14;101252.47;;;20.64;40.69
18527;BME280;9393;42.158;24.748;2022-10-17T08:06:17;101246.16;;;21.05;40.12
18527;BME280;9393;42.158;24.748;2022-10-17T08:09:21;101246.31;;;20.55;40.35
18527;BME280;9393;42.158;24.748;2022-10-17T08:12:24;101246.66;;;20.77;40.16
18527;BME280;9393;42.158;24.748;2022-10-17T08:15:28;101238.22;;;20.73;39.93
18527;BME280;9393;42.158;24.748;2022-10-17T08:18:34;101241.50;;;20.91;39.58
18527;BME280;9393;42.158;24.748;2022-10-17T08:21:38;101245.78;;;21.25;39.41
18527;BME280;9393;42.158;24.748;2022-10-17T08:24:42;101238.81;;;21.32;38.31
18527;BME280;9393;42.158;24.748;2022-10-17T08:27:47;101243.41;;;21.46;38.32
18527;BME280;9393;42.158;24.748;2022-10-17T08:30:50;101246.13;;;21.68;38.54
18527;BME280;9393;42.158;24.748;2022-10-17T08:33:55;101256.94;;;21.75;38.30
18527;BME280;9393;42.158;24.748;2022-10-17T08:36:58;101244.78;;;21.73;38.46
18527;BME280;9393;42.158;24.748;2022-10-17T08:40:02;101241.50;;;22.09;38.25
18527;BME280;9393;42.158;24.748;2022-10-17T08:43:17;101240.28;;;22.20;37.54
18527;BME280;9393;42.158;24.748;2022-10-17T08:46:28;101250.88;;;22.51;37.00
18527;BME280;9393;42.158;24.748;2022-10-17T08:49:38;101243.84;;;22.58;36.97
18527;BME280;9393;42.158;24.748;2022-10-17T08:52:50;101241.50;;;22.09;38.10
18527;BME280;9393;42.158;24.748;2022-10-17T08:55:54;101243.34;;;22.09;37.82
18527;BME280;9393;42.158;24.748;2022-10-17T08:58:58;101238.91;;;21.93;38.14
18527;BME280;9393;42.158;24.748;2022-10-17T09:02:15;101240.63;;;21.39;38.66
18527;BME280;9393;42.158;24.748;2022-10-17T09:05:30;101237.78;;;22.19;37.98
18527;BME280;9393;42.158;24.748;2022-10-17T09:08:43;101233.44;;;22.71;37.00
18527;BME280;9393;42.158;24.748;2022-10-17T09:11:58;101231.38;;;23.10;36.10
18527;BME280;9393;42.158;24.748;2022-10-17T09:18:45;101226.91;;;23.55;34.88
18527;BME280;9393;42.158;24.748;2022-10-17T09:21:59;101219.97;;;23.54;34.26
18527;BME280;9393;42.158;24.748;2022-10-17T09:25:08;101223.09;;;23.93;34.16
18527;BME280;9393;42.158;24.748;2022-10-17T09:28:17;101220.59;;;23.56;34.84
18527;BME280;9393;42.158;24.748;2022-10-17T09:31:24;101221.94;;;23.81;33.91
18527;BME280;9393;42.158;24.748;2022-10-17T09:34:30;101218.09;;;23.69;34.29
18527;BME280;9393;42.158;24.748;2022-10-17T09:37:35;101215.09;;;23.57;34.43
18527;BME280;9393;42.158;24.748;2022-10-17T09:40:40;101218.66;;;23.50;33.18
18527;BME280;9393;42.158;24.748;2022-10-17T09:43:43;101210.81;;;24.13;32.95
18527;BME280;9393;42.158;24.748;2022-10-17T09:50:32;101204.63;;;23.92;31.89
18527;BME280;9393;42.158;24.748;2022-10-17T09:53:38;101204.56;;;23.85;32.51
18527;BME280;9393;42.158;24.748;2022-10-17T09:56:57;101207.88;;;24.08;31.95
18527;BME280;9393;42.158;24.748;2022-10-17T10:00:05;101199.25;;;23.71;31.80
18527;BME280;9393;42.158;24.748;2022-10-17T10:03:19;101194.72;;;23.86;30.82
18527;BME280;9393;42.158;24.748;2022-10-17T10:06:23;101186.59;;;24.30;30.66
18527;BME280;9393;42.158;24.748;2022-10-17T10:09:30;101187.69;;;23.63;30.95
18527;BME280;9393;42.158;24.748;2022-10-17T10:12:38;101181.28;;;23.29;29.89
18527;BME280;9393;42.158;24.748;2022-10-17T10:15:43;101179.81;;;23.91;29.03
18527;BME280;9393;42.158;24.748;2022-10-17T10:18:47;101174.03;;;23.23;29.57
18527;BME280;9393;42.158;24.748;2022-10-17T10:21:54;101169.59;;;23.59;30.07
18527;BME280;9393;42.158;24.748;2022-10-17T10:25:13;101165.50;;;24.35;29.47
18527;BME280;9393;42.158;24.748;2022-10-17T10:28:17;101172.16;;;24.45;28.08
18527;BME280;9393;42.158;24.748;2022-10-17T10:31:32;101160.34;;;24.12;27.66
18527;BME280;9393;42.158;24.748;2022-10-17T10:34:37;101163.19;;;24.53;27.17
18527;BME280;9393;42.158;24.748;2022-10-17T10:37:45;101160.09;;;24.77;26.20
18527;BME280;9393;42.158;24.748;2022-10-17T10:40:53;101154.38;;;24.80;26.36
18527;BME280;9393;42.158;24.748;2022-10-17T10:43:57;101149.38;;;24.71;27.12
18527;BME280;9393;42.158;24.748;2022-10-17T10:47:22;101142.19;;;24.92;26.48
18527;BME280;9393;42.158;24.748;2022-10-17T10:50:30;101142.81;;;24.73;26.48
18527;BME280;9393;42.158;24.748;2022-10-17T10:53:41;101142.53;;;24.89;26.56
18527;BME280;9393;42.158;24.748;2022-10-17T10:56:49;101140.59;;;24.49;26.66
18527;BME280;9393;42.158;24.748;2022-10-17T10:59:58;101138.94;;;24.48;26.95
18527;BME280;9393;42.158;24.748;2022-10-17T11:03:09;101134.09;;;24.30;27.16
18527;BME280;9393;42.158;24.748;2022-10-17T11:06:18;101125.91;;;24.87;26.57
18527;BME280;9393;42.158;24.748;2022-10-17T11:09:30;101127.34;;;25.31;26.64
18527;BME280;9393;42.158;24.748;2022-10-17T11:12:40;101129.09;;;25.10;26.43
18527;BME280;9393;42.158;24.748;2022-10-17T11:15:54;101121.97;;;24.55;27.39
18527;BME280;9393;42.158;24.748;2022-10-17T11:19:06;101124.06;;;24.60;27.69
18527;BME280;9393;42.158;24.748;2022-10-17T11:22:15;101120.31;;;24.82;28.12
18527;BME280;9393;42.158;24.748;2022-10-17T11:25:32;101115.81;;;24.83;27.65
18527;BME280;9393;42.158;24.748;2022-10-17T11:28:37;101112.59;;;24.94;27.97
18527;BME280;9393;42.158;24.748;2022-10-17T11:31:43;101111.13;;;25.26;27.70
18527;BME280;9393;42.158;24.748;2022-10-17T11:34:51;101104.91;;;25.73;27.35
18527;BME280;9393;42.158;24.748;2022-10-17T11:38:06;101102.22;;;25.73;27.11
18527;BME280;9393;42.158;24.748;2022-10-17T11:41:18;101092.22;;;24.58;28.10
18527;BME280;9393;42.158;24.748;2022-10-17T11:44:26;101089.34;;;24.26;28.99
18527;BME280;9393;42.158;24.748;2022-10-17T11:47:38;101088.56;;;24.59;28.44
18527;BME280;9393;42.158;24.748;2022-10-17T11:50:50;101083.75;;;24.48;28.14
18527;BME280;9393;42.158;24.748;2022-10-17T11:54:24;101079.75;;;24.93;27.69
18527;BME280;9393;42.158;24.748;2022-10-17T11:57:47;101074.09;;;24.41;28.51
18527;BME280;9393;42.158;24.748;2022-10-17T12:01:06;101076.22;;;24.58;28.41
18527;BME280;9393;42.158;24.748;2022-10-17T12:04:21;101070.84;;;24.52;28.38
18527;BME280;9393;42.158;24.748;2022-10-17T12:07:35;101070.16;;;24.71;28.34
18527;BME280;9393;42.158;24.748;2022-10-17T12:10:45;101070.31;;;24.97;27.75
18527;BME280;9393;42.158;24.748;2022-10-17T12:13:52;101066.94;;;25.23;27.61
18527;BME280;9393;42.158;24.748;2022-10-17T12:16:58;101068.59;;;24.83;28.54
18527;BME280;9393;42.158;24.748;2022-10-17T12:20:30;101068.97;;;25.21;28.06
18527;BME280;9393;42.158;24.748;2022-10-17T12:23:35;101061.06;;;24.93;27.95
18527;BME280;9393;42.158;24.748;2022-10-17T12:26:39;101069.44;;;24.84;28.32
18527;BME280;9393;42.158;24.748;2022-10-17T12:29:42;101060.84;;;24.54;28.68
18527;BME280;9393;42.158;24.748;2022-10-17T12:32:58;101062.56;;;25.02;28.00
18527;BME280;9393;42.158;24.748;2022-10-17T12:39:50;101065.78;;;24.91;28.13
18527;BME280;9393;42.158;24.748;2022-10-17T12:42:53;101061.72;;;25.02;28.52
18527;BME280;9393;42.158;24.748;2022-10-17T12:45:57;101055.25;;;24.49;29.00
18527;BME280;9393;42.158;24.748;2022-10-17T12:49:19;101057.69;;;24.44;28.77
18527;BME280;9393;42.158;24.748;2022-10-17T12:52:57;101060.03;;;24.88;28.99
18527;BME280;9393;42.158;24.748;2022-10-17T12:56:04;101064.19;;;24.69;29.06
18527;BME280;9393;42.158;24.748;2022-10-17T12:59:13;101058.19;;;24.60;29.00
18527;BME280;9393;42.158;24.748;2022-10-17T13:02:20;101061.34;;;24.71;28.89
18527;BME280;9393;42.158;24.748;2022-10-17T13:05:28;101054.38;;;24.42;28.89
18527;BME280;9393;42.158;24.748;2022-10-17T13:08:35;101055.75;;;24.65;29.05
18527;BME280;9393;42.158;24.748;2022-10-17T13:11:39;101058.88;;;24.13;29.60
18527;BME280;9393;42.158;24.748;2022-10-17T13:14:45;101059.28;;;23.68;29.59
18527;BME280;9393;42.158;24.748;2022-10-17T13:17:57;101061.03;;;24.03;29.78
18527;BME280;9393;42.158;24.748;2022-10-17T13:21:04;101066.88;;;24.13;29.15
18527;BME280;9393;42.158;24.748;2022-10-17T13:24:22;101062.84;;;24.24;28.98
18527;BME280;9393;42.158;24.748;2022-10-17T13:27:27;101062.16;;;24.37;29.02
18527;BME280;9393;42.158;24.748;2022-10-17T13:30:32;101058.34;;;24.52;29.39
18527;BME280;9393;42.158;24.748;2022-10-17T13:33:37;101059.44;;;24.58;29.40
18527;BME280;9393;42.158;24.748;2022-10-17T13:36:45;101052.91;;;23.90;29.97
18527;BME280;9393;42.158;24.748;2022-10-17T13:39:49;101056.25;;;23.92;29.93
18527;BME280;9393;42.158;24.748;2022-10-17T13:42:58;101054.25;;;23.23;30.54
18527;BME280;9393;42.158;24.748;2022-10-17T13:46:03;101057.28;;;23.20;31.31
18527;BME280;9393;42.158;24.748;2022-10-17T13:49:31;101053.91;;;23.11;30.98
18527;BME280;9393;42.158;24.748;2022-10-17T13:52:36;101055.34;;;23.43;30.85
18527;BME280;9393;42.158;24.748;2022-10-17T13:55:50;101044.03;;;23.62;30.77
18527;BME280;9393;42.158;24.748;2022-10-17T13:59:20;101044.47;;;23.08;31.24
18527;BME280;9393;42.158;24.748;2022-10-17T14:02:26;101044.53;;;23.15;31.26
18527;BME280;9393;42.158;24.748;2022-10-17T14:05:29;101047.34;;;23.43;31.04
18527;BME280;9393;42.158;24.748;2022-10-17T14:08:35;101042.22;;;23.62;30.40
18527;BME280;9393;42.158;24.748;2022-10-17T14:11:40;101041.66;;;23.67;30.37
18527;BME280;9393;42.158;24.748;2022-10-17T14:14:47;101045.91;;;23.61;30.82
18527;BME280;9393;42.158;24.748;2022-10-17T14:18:18;101042.91;;;23.50;30.95
18527;BME280;9393;42.158;24.748;2022-10-17T14:21:24;101041.31;;;23.20;31.06
18527;BME280;9393;42.158;24.748;2022-10-17T14:24:46;101049.47;;;23.33;31.71
18527;BME280;9393;42.158;24.748;2022-10-17T14:27:54;101052.13;;;23.33;31.48
18527;BME280;9393;42.158;24.748;2022-10-17T14:31:30;101053.78;;;23.34;31.65
18527;BME280;9393;42.158;24.748;2022-10-17T14:34:35;101052.06;;;23.11;31.61
18527;BME280;9393;42.158;24.748;2022-10-17T14:37:41;101052.91;;;22.97;32.13
18527;BME280;9393;42.158;24.748;2022-10-17T14:40:50;101052.91;;;22.97;32.37
18527;BME280;9393;42.158;24.748;2022-10-17T14:44:07;101049.81;;;22.64;32.47
18527;BME280;9393;42.158;24.748;2022-10-17T14:47:19;101056.66;;;22.44;33.02
18527;BME280;9393;42.158;24.748;2022-10-17T14:51:05;101058.84;;;22.26;33.48
18527;BME280;9393;42.158;24.748;2022-10-17T14:54:18;101061.28;;;22.28;33.86
18527;BME280;9393;42.158;24.748;2022-10-17T14:57:33;101062.59;;;21.94;34.16
18527;BME280;9393;42.158;24.748;2022-10-17T15:00:42;101066.00;;;21.80;34.94
18527;BME280;9393;42.158;24.748;2022-10-17T15:03:45;101069.53;;;21.73;35.16
18527;BME280;9393;42.158;24.748;2022-10-17T15:06:52;101067.13;;;21.63;35.12
18527;BME280;9393;42.158;24.748;2022-10-17T15:09:56;101064.81;;;21.60;35.47
18527;BME280;9393;42.158;24.748;2022-10-17T15:13:01;101070.53;;;21.49;35.70
18527;BME280;9393;42.158;24.748;2022-10-17T15:16:26;101076.78;;;21.56;35.72
18527;BME280;9393;42.158;24.748;2022-10-17T15:19:32;101067.06;;;21.09;36.08
18527;BME280;9393;42.158;24.748;2022-10-17T15:22:35;101064.03;;;21.21;36.18
18527;BME280;9393;42.158;24.748;2022-10-17T15:25:38;101066.69;;;21.21;36.34
18527;BME280;9393;42.158;24.748;2022-10-17T15:28:43;101065.19;;;21.26;36.42
18527;BME280;9393;42.158;24.748;2022-10-17T15:31:48;101065.41;;;21.17;36.58
18527;BME280;9393;42.158;24.748;2022-10-17T15:34:51;101065.09;;;21.11;36.78
18527;BME280;9393;42.158;24.748;2022-10-17T15:37:54;101063.44;;;21.10;36.88
18527;BME280;9393;42.158;24.748;2022-10-17T15:40:58;101069.34;;;20.82;37.32
18527;BME280;9393;42.158;24.748;2022-10-17T15:44:03;101075.28;;;20.84;37.67
18527;BME280;9393;42.158;24.748;2022-10-17T15:47:10;101073.53;;;20.60;38.68
18527;BME280;9393;42.158;24.748;2022-10-17T15:50:17;101080.44;;;20.69;38.52
18527;BME280;9393;42.158;24.748;2022-10-17T15:53:20;101076.50;;;20.65;38.57
18527;BME280;9393;42.158;24.748;2022-10-17T15:56:27;101073.53;;;20.60;38.63
18527;BME280;9393;42.158;24.748;2022-10-17T15:59:33;101082.66;;;20.49;38.82
18527;BME280;9393;42.158;24.748;2022-10-17T16:02:36;101079.19;;;20.49;38.68
18527;BME280;9393;42.158;24.748;2022-10-17T16:05:40;101087.66;;;20.44;38.65
18527;BME280;9393;42.158;24.748;2022-10-17T16:08:43;101090.13;;;20.46;39.03
18527;BME280;9393;42.158;24.748;2022-10-17T16:11:46;101086.81;;;20.36;39.42
18527;BME280;9393;42.158;24.748;2022-10-17T16:14:51;101085.84;;;20.29;39.76
18527;BME280;9393;42.158;24.748;2022-10-17T16:17:55;101090.59;;;20.25;39.96
18527;BME280;9393;42.158;24.748;2022-10-17T16:21:04;101094.91;;;20.10;40.32
18527;BME280;9393;42.158;24.748;2022-10-17T16:24:09;101093.75;;;20.04;40.66
18527;BME280;9393;42.158;24.748;2022-10-17T16:27:12;101096.38;;;19.96;40.57
18527;BME280;9393;42.158;24.748;2022-10-17T16:30:17;101097.38;;;20.03;40.83
18527;BME280;9393;42.158;24.748;2022-10-17T16:33:26;101094.41;;;19.90;41.28
18527;BME280;9393;42.158;24.748;2022-10-17T16:36:29;101106.13;;;19.80;42.26